createdAt,value
2023-04-29T00:02:58.552Z,17.00
2023-04-29T00:05:49.896Z,16.90
2023-04-29T00:08:42.657Z,16.90
2023-04-29T00:11:34.124Z,16.80
2023-04-29T00:14:25.545Z,16.80
2023-04-29T00:17:17.699Z,16.80
2023-04-29T00:20:12.019Z,16.80
2023-04-29T00:23:03.326Z,16.80
2023-04-29T00:28:34.016Z,16.70
2023-04-29T00:31:25.546Z,16.70
2023-04-29T00:34:16.724Z,16.70
2023-04-29T00:37:07.621Z,16.70
2023-04-29T00:39:59.460Z,16.70
2023-04-29T00:42:50.898Z,16.80
2023-04-29T00:45:42.599Z,16.90
2023-04-29T00:48:34.772Z,17.00
2023-04-29T00:51:26.023Z,17.10
2023-04-29T00:54:17.398Z,17.20
2023-04-29T00:57:10.290Z,17.20
2023-04-29T01:02:41.127Z,17.30
2023-04-29T01:05:32.833Z,17.30
2023-04-29T01:11:08.833Z,17.40
2023-04-29T01:14:03.309Z,17.50
2023-04-29T01:16:57.076Z,17.60
2023-04-29T01:19:52.104Z,17.50
2023-04-29T01:25:24.271Z,17.50
2023-04-29T01:28:38.493Z,17.60
2023-04-29T01:31:33.899Z,17.50
2023-04-29T01:34:28.331Z,17.50
2023-04-29T01:37:24.121Z,17.60
2023-04-29T01:40:19.958Z,17.60
2023-04-29T01:45:57.516Z,17.50
2023-04-29T01:48:49.103Z,17.50
2023-04-29T01:51:40.504Z,17.50
2023-04-29T01:54:32.168Z,17.50
2023-04-29T01:57:23.738Z,17.60
2023-04-29T02:02:55.838Z,17.50
2023-04-29T02:05:54.416Z,17.50
2023-04-29T02:08:45.956Z,17.50
2023-04-29T02:11:37.387Z,17.50
2023-04-29T02:17:09.260Z,17.50
2023-04-29T02:22:44.076Z,17.50
2023-04-29T02:28:14.876Z,17.50
2023-04-29T02:33:45.384Z,17.50
2023-04-29T02:36:36.684Z,17.50
2023-04-29T02:39:28.113Z,17.40
2023-04-29T02:42:20.415Z,17.40
2023-04-29T02:47:51.620Z,17.40
2023-04-29T02:50:42.599Z,17.40
2023-04-29T02:53:33.916Z,17.40
2023-04-29T02:59:04.886Z,17.40
2023-04-29T03:01:56.223Z,17.30
2023-04-29T03:04:47.453Z,17.10
2023-04-29T03:07:38.733Z,17.00
2023-04-29T03:13:09.546Z,16.40
2023-04-29T03:16:01.641Z,16.30
2023-04-29T03:18:52.970Z,16.10
2023-04-29T03:21:44.856Z,16.00
2023-04-29T03:24:36.703Z,16.00
2023-04-29T03:27:27.993Z,15.90
2023-04-29T03:32:58.063Z,16.40
2023-04-29T03:38:28.635Z,16.50
2023-04-29T03:41:20.223Z,16.40
2023-04-29T03:44:11.745Z,16.30
2023-04-29T03:49:41.256Z,16.10
2023-04-29T03:52:33.059Z,15.90
2023-04-29T03:58:04.717Z,15.70
2023-04-29T04:03:37.214Z,15.50
2023-04-29T04:06:29.065Z,15.50
2023-04-29T04:09:24.092Z,15.60
2023-04-29T04:12:15.769Z,15.50
2023-04-29T04:17:49.870Z,15.50
2023-04-29T04:23:21.188Z,15.50
2023-04-29T04:28:50.358Z,15.60
2023-04-29T04:31:49.305Z,15.60
2023-04-29T04:34:41.009Z,15.50
2023-04-29T04:37:33.937Z,15.40
2023-04-29T04:43:04.456Z,15.40
2023-04-29T04:45:56.934Z,15.40
2023-04-29T04:51:28.405Z,15.50
2023-04-29T04:54:19.582Z,15.60
2023-04-29T04:57:12.419Z,15.50
2023-04-29T05:02:43.682Z,15.60
2023-04-29T05:08:14.828Z,15.60
2023-04-29T05:11:07.818Z,15.60
2023-04-29T05:13:59.027Z,15.60
2023-04-29T05:16:52.969Z,15.70
2023-04-29T05:19:44.705Z,15.80
2023-04-29T05:22:36.422Z,15.90
2023-04-29T05:28:08.569Z,16.00
2023-04-29T05:31:01.252Z,15.90
2023-04-29T05:33:54.782Z,15.90
2023-04-29T05:36:46.944Z,15.90
2023-04-29T05:39:38.282Z,15.90
2023-04-29T05:42:31.651Z,16.00
2023-04-29T05:48:06.868Z,16.00
2023-04-29T05:53:40.720Z,16.00
2023-04-29T05:59:10.241Z,16.10
2023-04-29T06:04:42.129Z,16.10
2023-04-29T06:07:35.041Z,16.10
2023-04-29T06:13:06.627Z,16.30
2023-04-29T06:18:38.338Z,16.30
2023-04-29T06:21:29.365Z,16.40
2023-04-29T06:24:21.529Z,16.50
2023-04-29T06:32:34.170Z,16.80
2023-04-29T06:38:04.607Z,16.90
2023-04-29T06:43:54.209Z,16.90
2023-04-29T06:49:44.309Z,16.80
2023-04-29T06:52:36.229Z,16.80
2023-04-29T06:58:06.099Z,16.80
2023-04-29T07:00:58.053Z,16.90
2023-04-29T07:03:49.561Z,16.90
2023-04-29T07:09:27.680Z,16.80
2023-04-29T07:12:19.077Z,16.60
2023-04-29T07:17:57.351Z,16.70
2023-04-29T07:23:27.913Z,16.70
2023-04-29T07:28:58.984Z,16.80
2023-04-29T07:31:50.426Z,16.90
2023-04-29T07:34:42.013Z,16.90
2023-04-29T07:37:33.509Z,17.00
2023-04-29T07:43:05.864Z,17.00
2023-04-29T07:45:58.035Z,17.00
2023-04-29T07:48:49.956Z,17.00
2023-04-29T07:51:44.132Z,17.00
2023-04-29T07:54:35.535Z,17.00
2023-04-29T07:57:26.786Z,17.00
2023-04-29T08:02:58.656Z,17.10
2023-04-29T08:08:33.253Z,17.20
2023-04-29T08:14:06.857Z,17.30
2023-04-29T08:16:58.322Z,17.40
2023-04-29T08:19:49.654Z,17.50
2023-04-29T08:22:42.833Z,17.60
2023-04-29T08:25:34.136Z,17.70
2023-04-29T08:28:28.937Z,17.80
2023-04-29T08:31:20.881Z,17.90
2023-04-29T08:34:12.234Z,18.20
2023-04-29T08:39:43.678Z,18.90
2023-04-29T08:42:37.363Z,19.10
2023-04-29T08:48:14.848Z,18.90
2023-04-29T08:51:06.714Z,18.90
2023-04-29T08:53:58.613Z,19.10
2023-04-29T08:59:29.703Z,19.30
2023-04-29T09:02:22.700Z,19.40
2023-04-29T09:05:14.788Z,19.40
2023-04-29T09:08:07.592Z,19.50
2023-04-29T09:13:42.511Z,19.80
2023-04-29T09:16:33.784Z,19.90
2023-04-29T09:22:13.730Z,20.20
2023-04-29T09:27:55.856Z,20.20
2023-04-29T09:33:29.930Z,20.20
2023-04-29T09:39:28.803Z,20.20
2023-04-29T09:42:20.006Z,20.30
2023-04-29T09:48:02.360Z,20.20
2023-04-29T09:53:43.843Z,19.80
2023-04-29T09:59:15.106Z,19.50
2023-04-29T10:02:10.512Z,19.30
2023-04-29T10:07:43.085Z,19.20
2023-04-29T10:13:12.929Z,19.30
2023-04-29T10:18:45.593Z,19.40
2023-04-29T10:21:36.957Z,19.40
2023-04-29T10:24:28.885Z,19.30
2023-04-29T10:27:21.670Z,19.30
2023-04-29T10:33:01.782Z,19.40
2023-04-29T10:35:54.245Z,19.50
2023-04-29T10:38:49.706Z,19.50
2023-04-29T10:41:47.210Z,19.70
2023-04-29T10:44:46.676Z,19.80
2023-04-29T10:47:38.197Z,19.90
2023-04-29T10:50:31.829Z,20.10
2023-04-29T10:53:23.269Z,20.10
2023-04-29T10:58:52.918Z,19.90
2023-04-29T11:01:46.721Z,20.00
2023-04-29T11:04:39.580Z,20.10
2023-04-29T11:07:32.178Z,19.90
2023-04-29T11:13:26.089Z,19.90
2023-04-29T11:19:09.343Z,20.30
2023-04-29T11:22:15.993Z,20.40
2023-04-29T11:25:09.904Z,21.00
2023-04-29T11:30:41.434Z,22.30
2023-04-29T11:36:15.281Z,22.40
2023-04-29T11:39:06.933Z,22.10
2023-04-29T11:42:06.982Z,21.90
2023-04-29T11:45:00.535Z,21.90
2023-04-29T11:53:12.755Z,22.60
2023-04-29T11:56:03.884Z,22.90
2023-04-29T11:58:58.025Z,23.00
2023-04-29T12:01:49.847Z,23.10
2023-04-29T12:04:48.676Z,23.30
2023-04-29T12:07:40.558Z,23.60
2023-04-29T12:10:33.757Z,23.70
2023-04-29T12:16:11.041Z,23.50
2023-04-29T12:19:03.305Z,23.40
2023-04-29T12:21:54.516Z,23.10
2023-04-29T12:24:45.555Z,23.30
2023-04-29T12:27:37.908Z,23.00
2023-04-29T12:30:29.574Z,22.70
2023-04-29T12:33:24.006Z,22.80
2023-04-29T12:36:23.153Z,22.50
2023-04-29T12:39:16.046Z,22.40
2023-04-29T12:42:07.381Z,22.50
2023-04-29T12:44:58.849Z,23.00
2023-04-29T12:47:52.177Z,23.30
2023-04-29T12:50:43.706Z,23.00
2023-04-29T12:53:36.025Z,22.80
2023-04-29T12:56:27.093Z,22.60
2023-04-29T12:59:18.437Z,22.90
2023-04-29T13:02:10.158Z,22.90
2023-04-29T13:05:01.923Z,22.90
2023-04-29T13:07:53.802Z,22.70
2023-04-29T13:10:44.725Z,23.20
2023-04-29T13:13:35.805Z,23.30
2023-04-29T13:16:27.483Z,23.10
2023-04-29T13:19:34.776Z,23.30
2023-04-29T13:22:11.617Z,22.90
2023-04-29T13:25:04.107Z,23.10
2023-04-29T13:27:58.397Z,23.30
2023-04-29T13:30:50.834Z,23.50
2023-04-29T13:33:43.538Z,23.50
2023-04-29T13:36:34.734Z,23.70
2023-04-29T13:39:28.966Z,23.90
2023-04-29T13:42:20.149Z,24.20
2023-04-29T13:45:11.921Z,24.10
2023-04-29T13:48:12.636Z,24.50
2023-04-29T13:59:42.842Z,23.70
2023-04-29T14:02:25.444Z,23.40
2023-04-29T14:05:14.269Z,23.60
2023-04-29T14:08:06.520Z,23.60
2023-04-29T14:10:58.250Z,23.50
2023-04-29T14:13:49.439Z,23.40
2023-04-29T14:16:41.562Z,23.40
2023-04-29T14:19:33.140Z,23.60
2023-04-29T14:25:05.898Z,23.50
2023-04-29T14:30:41.231Z,23.40
2023-04-29T14:36:13.281Z,23.10
2023-04-29T14:41:45.003Z,23.80
2023-04-29T14:44:36.352Z,23.90
2023-04-29T14:47:32.066Z,24.20
2023-04-29T14:50:25.520Z,24.90
2023-04-29T14:53:16.753Z,26.20
2023-04-29T14:56:08.861Z,26.30
2023-04-29T14:59:00.314Z,25.60
2023-04-29T15:04:44.223Z,24.90
2023-04-29T15:07:36.074Z,24.80
2023-04-29T15:10:27.382Z,24.50
2023-04-29T15:13:20.188Z,24.30
2023-04-29T15:16:12.183Z,24.20
2023-04-29T15:19:03.569Z,24.20
2023-04-29T15:22:14.964Z,24.10
2023-04-29T15:25:09.899Z,24.00
2023-04-29T15:28:06.150Z,23.90
2023-04-29T15:34:13.358Z,23.70
2023-04-29T15:39:50.256Z,23.80
2023-04-29T15:42:41.428Z,23.90
2023-04-29T15:48:11.585Z,23.90
2023-04-29T15:51:02.868Z,23.60
2023-04-29T15:53:54.403Z,23.40
2023-04-29T15:56:45.656Z,23.10
2023-04-29T15:59:37.056Z,22.90
2023-04-29T16:02:28.561Z,22.80
2023-04-29T16:05:20.062Z,22.80
2023-04-29T16:08:11.463Z,22.70
2023-04-29T16:13:41.988Z,22.50
2023-04-29T16:16:33.897Z,22.30
2023-04-29T16:19:25.055Z,22.20
2023-04-29T16:22:16.588Z,22.10
2023-04-29T16:25:11.443Z,22.00
2023-04-29T16:28:03.374Z,21.70
2023-04-29T16:30:54.839Z,21.40
2023-04-29T16:33:46.325Z,21.20
2023-04-29T16:36:37.718Z,21.20
2023-04-29T16:39:28.936Z,21.00
2023-04-29T16:42:20.488Z,20.70
2023-04-29T16:45:14.767Z,20.80
2023-04-29T16:48:06.618Z,21.00
2023-04-29T16:50:58.376Z,22.40
2023-04-29T16:56:33.586Z,24.10
2023-04-29T16:59:24.441Z,23.60
2023-04-29T17:02:15.741Z,23.20
2023-04-29T17:05:08.885Z,22.70
2023-04-29T17:08:00.071Z,22.00
2023-04-29T17:10:51.267Z,22.10
2023-04-29T17:13:44.433Z,22.60
2023-04-29T17:16:35.697Z,22.60
2023-04-29T17:19:27.299Z,23.20
2023-04-29T17:22:18.846Z,23.60
2023-04-29T17:25:13.939Z,23.20
2023-04-29T17:28:05.397Z,23.40
2023-04-29T17:30:58.444Z,23.50
2023-04-29T17:33:52.848Z,23.30
2023-04-29T17:36:43.885Z,22.80
2023-04-29T17:39:35.414Z,22.60
2023-04-29T17:42:26.884Z,22.10
2023-04-29T17:45:18.139Z,21.60
2023-04-29T17:48:10.438Z,21.20
2023-04-29T17:51:01.915Z,21.20
2023-04-29T17:53:54.451Z,21.00
2023-04-29T17:56:45.746Z,20.70
2023-04-29T17:59:37.189Z,20.60
2023-04-29T18:02:28.741Z,20.40
2023-04-29T18:05:21.605Z,20.10
2023-04-29T18:08:12.928Z,20.00
2023-04-29T18:11:07.905Z,19.80
2023-04-29T18:13:59.642Z,19.70
2023-04-29T18:16:51.713Z,19.60
2023-04-29T18:19:43.369Z,19.50
2023-04-29T18:22:35.006Z,19.50
2023-04-29T18:25:26.523Z,19.40
2023-04-29T18:28:24.100Z,19.30
2023-04-29T18:31:10.741Z,19.30
2023-04-29T18:34:02.597Z,19.20
2023-04-29T18:36:55.056Z,19.20
2023-04-29T18:39:46.580Z,19.20
2023-04-29T18:42:37.840Z,19.10
2023-04-29T18:45:29.277Z,19.20
2023-04-29T18:48:20.674Z,19.10
2023-04-29T18:51:12.410Z,19.10
2023-04-29T18:54:03.772Z,19.20
2023-04-29T18:56:55.118Z,19.30
2023-04-29T18:59:46.628Z,19.20
2023-04-29T19:02:38.490Z,19.20
2023-04-29T19:05:29.699Z,19.20
2023-04-29T19:08:21.101Z,19.10
2023-04-29T19:11:12.565Z,19.10
2023-04-29T19:14:04.427Z,19.00
2023-04-29T19:16:56.019Z,18.90
2023-04-29T19:19:47.338Z,18.80
2023-04-29T19:22:39.217Z,18.70
2023-04-29T19:25:31.984Z,18.70
2023-04-29T19:28:23.529Z,18.60
2023-04-29T19:31:15.178Z,18.60
2023-04-29T19:34:06.786Z,18.50
2023-04-29T19:36:58.834Z,18.40
2023-04-29T19:39:50.392Z,18.40
2023-04-29T19:42:42.441Z,18.20
2023-04-29T19:45:34.015Z,18.10
2023-04-29T19:48:26.409Z,18.10
2023-04-29T19:51:17.641Z,18.10
2023-04-29T19:54:08.960Z,18.00
2023-04-29T19:57:01.140Z,18.00
2023-04-29T19:59:52.849Z,17.90
2023-04-29T20:02:45.015Z,17.90
2023-04-29T20:05:36.296Z,17.90
2023-04-29T20:08:28.091Z,17.90
2023-04-29T20:11:20.251Z,17.70
2023-04-29T20:14:11.528Z,17.60
2023-04-29T20:17:03.221Z,17.50
2023-04-29T20:19:54.902Z,17.60
2023-04-29T20:22:46.648Z,17.60
2023-04-29T20:25:37.881Z,17.60
2023-04-29T20:28:29.260Z,17.60
2023-04-29T20:31:20.640Z,17.60
2023-04-29T20:34:12.670Z,17.40
2023-04-29T20:37:04.241Z,17.40
2023-04-29T20:39:55.616Z,17.50
2023-04-29T20:42:47.556Z,17.50
2023-04-29T20:45:39.647Z,17.50
2023-04-29T20:48:31.017Z,17.50
2023-04-29T20:51:22.480Z,17.40
2023-04-29T20:54:14.033Z,17.40
2023-04-29T20:57:06.470Z,17.50
2023-04-29T20:59:57.649Z,17.50
2023-04-29T21:02:49.171Z,17.40
2023-04-29T21:05:40.666Z,17.40
2023-04-29T21:08:31.988Z,17.40
2023-04-29T21:11:23.882Z,17.40
2023-04-29T21:14:15.086Z,17.30
2023-04-29T21:17:06.125Z,17.20
2023-04-29T21:19:58.234Z,17.20
2023-04-29T21:22:49.901Z,17.00
2023-04-29T21:25:41.206Z,16.90
2023-04-29T21:28:32.740Z,16.90
2023-04-29T21:31:24.418Z,16.80
2023-04-29T21:34:16.314Z,16.90
2023-04-29T21:37:07.802Z,17.00
2023-04-29T21:40:00.505Z,16.80
2023-04-29T21:42:52.148Z,16.80
2023-04-29T21:45:43.982Z,16.60
2023-04-29T21:48:35.526Z,16.60
2023-04-29T21:51:29.678Z,16.60
2023-04-29T21:54:21.176Z,16.60
2023-04-29T21:57:12.906Z,16.60
2023-04-29T22:00:06.844Z,16.60
2023-04-29T22:02:59.739Z,16.50
2023-04-29T22:05:51.234Z,16.40
2023-04-29T22:08:46.278Z,16.40
2023-04-29T22:11:37.707Z,16.40
2023-04-29T22:14:31.875Z,16.40
2023-04-29T22:17:23.181Z,16.50
2023-04-29T22:20:16.718Z,16.50
2023-04-29T22:25:48.241Z,16.60
2023-04-29T22:28:39.381Z,16.60
2023-04-29T22:31:30.975Z,16.60
2023-04-29T22:34:22.487Z,16.60
2023-04-29T22:37:13.704Z,16.60
2023-04-29T22:40:05.292Z,16.60
2023-04-29T22:42:56.625Z,16.60
2023-04-29T22:45:53.984Z,16.50
2023-04-29T22:51:28.614Z,16.40
2023-04-29T22:54:19.808Z,16.40
2023-04-29T22:57:11.186Z,16.50
2023-04-29T23:00:02.833Z,16.40
2023-04-29T23:02:54.192Z,16.40
2023-04-29T23:05:45.586Z,16.40
2023-04-29T23:08:36.900Z,16.30
2023-04-29T23:11:28.249Z,16.20
2023-04-29T23:14:21.396Z,16.20
2023-04-29T23:17:12.698Z,16.30
2023-04-29T23:20:04.270Z,16.30
2023-04-29T23:25:34.692Z,16.20
2023-04-29T23:28:25.663Z,16.30
2023-04-29T23:31:17.020Z,16.30
2023-04-29T23:34:08.740Z,16.40
2023-04-29T23:37:01.402Z,16.40
2023-04-29T23:39:52.836Z,16.40
2023-04-29T23:42:44.632Z,16.40
2023-04-29T23:45:36.191Z,16.10
2023-04-29T23:48:27.467Z,15.90
2023-04-29T23:51:18.849Z,15.90
2023-04-29T23:54:11.619Z,15.90
2023-04-29T23:57:03.410Z,16.00
2023-04-29T23:59:55.662Z,16.00
